createdAt,value
2023-01-30T00:01:12.263Z,72.07
2023-01-30T00:03:38.670Z,72.65
2023-01-30T00:06:05.242Z,72.23
2023-01-30T00:08:31.688Z,72.18
2023-01-30T00:11:04.303Z,71.95
2023-01-30T00:13:30.817Z,71.60
2023-01-30T00:15:57.395Z,71.75
2023-01-30T00:18:24.211Z,72.30
2023-01-30T00:21:02.594Z,72.20
2023-01-30T00:23:30.362Z,72.71
2023-01-30T00:25:56.837Z,72.07
2023-01-30T00:28:24.040Z,72.59
2023-01-30T00:30:51.689Z,73.01
2023-01-30T00:33:19.620Z,74.05
2023-01-30T00:35:48.124Z,74.04
2023-01-30T00:38:15.166Z,74.05
2023-01-30T00:40:42.075Z,74.30
2023-01-30T00:43:31.130Z,74.87
2023-01-30T00:46:17.089Z,74.42
2023-01-30T00:48:43.553Z,74.90
2023-01-30T00:51:10.368Z,74.95
2023-01-30T00:53:36.961Z,75.60
2023-01-30T00:56:03.887Z,75.42
2023-01-30T00:58:30.353Z,75.38
2023-01-30T01:00:56.876Z,75.83
2023-01-30T01:03:23.591Z,75.39
2023-01-30T01:05:50.124Z,75.37
2023-01-30T01:08:16.751Z,76.29
2023-01-30T01:10:43.231Z,75.83
2023-01-30T01:13:10.548Z,76.19
2023-01-30T01:15:37.197Z,76.21
2023-01-30T01:18:05.472Z,76.08
2023-01-30T01:20:32.011Z,76.04
2023-01-30T01:22:58.479Z,76.35
2023-01-30T01:25:26.103Z,75.95
2023-01-30T01:27:54.239Z,76.50
2023-01-30T01:30:20.877Z,76.16
2023-01-30T01:32:47.341Z,75.96
2023-01-30T01:35:13.814Z,76.57
2023-01-30T01:37:40.291Z,76.51
2023-01-30T01:40:26.186Z,76.82
2023-01-30T01:42:52.749Z,76.74
2023-01-30T01:45:22.057Z,76.63
2023-01-30T01:48:06.021Z,77.28
2023-01-30T01:50:58.322Z,78.11
2023-01-30T01:53:30.050Z,77.78
2023-01-30T01:55:59.473Z,77.72
2023-01-30T01:58:40.248Z,78.66
2023-01-30T02:01:07.260Z,78.97
2023-01-30T02:03:40.131Z,78.63
2023-01-30T02:06:08.407Z,78.92
2023-01-30T02:08:43.795Z,78.94
2023-01-30T02:11:38.840Z,79.07
2023-01-30T02:14:06.402Z,78.76
2023-01-30T02:16:32.887Z,79.00
2023-01-30T02:18:59.367Z,78.69
2023-01-30T02:21:56.591Z,78.84
2023-01-30T02:24:40.677Z,78.78
2023-01-30T02:27:32.184Z,79.31
2023-01-30T02:30:42.724Z,79.49
2023-01-30T02:33:57.385Z,79.96
2023-01-30T02:36:36.553Z,80.44
2023-01-30T02:39:17.242Z,79.81
2023-01-30T02:41:50.373Z,80.02
2023-01-30T02:44:23.695Z,79.38
2023-01-30T02:46:58.932Z,79.82
2023-01-30T02:49:32.183Z,79.63
2023-01-30T02:52:01.360Z,79.88
2023-01-30T02:54:27.951Z,79.25
2023-01-30T02:56:58.148Z,79.88
2023-01-30T02:59:39.220Z,79.95
2023-01-30T03:02:51.975Z,79.87
2023-01-30T03:05:30.791Z,80.30
2023-01-30T03:08:14.699Z,81.37
2023-01-30T03:10:52.001Z,81.05
2023-01-30T03:13:45.979Z,80.94
2023-01-30T03:16:22.734Z,81.26
2023-01-30T03:18:49.528Z,81.16
2023-01-30T03:21:17.532Z,81.71
2023-01-30T03:23:47.452Z,81.39
2023-01-30T03:26:24.676Z,80.58
2023-01-30T03:28:53.041Z,80.83
2023-01-30T03:31:20.001Z,81.29
2023-01-30T03:33:46.535Z,81.13
2023-01-30T03:36:13.870Z,81.16
2023-01-30T03:38:40.531Z,81.80
2023-01-30T03:41:07.027Z,82.62
2023-01-30T03:43:34.318Z,82.11
2023-01-30T03:46:03.104Z,82.16
2023-01-30T03:48:29.927Z,82.42
2023-01-30T03:50:56.431Z,82.73
2023-01-30T03:53:23.115Z,83.31
2023-01-30T03:55:49.800Z,82.65
2023-01-30T03:58:21.488Z,83.20
2023-01-30T04:00:48.369Z,83.61
2023-01-30T04:03:15.753Z,83.42
2023-01-30T04:05:43.753Z,83.88
2023-01-30T04:08:10.602Z,83.81
2023-01-30T04:10:37.166Z,83.91
2023-01-30T04:13:03.713Z,83.72
2023-01-30T04:15:31.933Z,83.66
2023-01-30T04:18:16.821Z,83.34
2023-01-30T04:21:04.241Z,82.99
2023-01-30T04:23:35.953Z,83.36
2023-01-30T04:26:03.696Z,82.53
2023-01-30T04:28:31.620Z,82.28
2023-01-30T04:30:58.221Z,81.62
2023-01-30T04:33:43.173Z,81.75
2023-01-30T04:36:11.433Z,81.70
2023-01-30T04:38:39.055Z,81.93
2023-01-30T04:41:07.010Z,81.66
2023-01-30T04:43:36.093Z,82.03
2023-01-30T04:46:28.618Z,81.50
2023-01-30T04:48:56.026Z,82.00
2023-01-30T04:51:22.461Z,82.62
2023-01-30T04:53:48.915Z,82.88
2023-01-30T04:56:15.398Z,82.60
2023-01-30T04:58:42.439Z,82.97
2023-01-30T05:01:14.122Z,82.49
2023-01-30T05:03:40.603Z,82.22
2023-01-30T05:06:07.372Z,82.40
2023-01-30T05:08:33.809Z,82.87
2023-01-30T05:11:00.232Z,82.68
2023-01-30T05:13:26.695Z,82.31
2023-01-30T05:15:53.169Z,83.44
2023-01-30T05:18:19.647Z,82.68
2023-01-30T05:20:46.038Z,82.51
2023-01-30T05:23:12.450Z,82.24
2023-01-30T05:25:38.842Z,82.70
2023-01-30T05:28:05.260Z,82.53
2023-01-30T05:30:31.705Z,82.62
2023-01-30T05:32:58.831Z,82.72
2023-01-30T05:35:25.247Z,83.25
2023-01-30T05:37:52.477Z,82.98
2023-01-30T05:40:19.023Z,83.25
2023-01-30T05:42:45.443Z,83.46
2023-01-30T05:45:11.877Z,83.31
2023-01-30T05:47:38.346Z,83.03
2023-01-30T05:50:05.177Z,83.18
2023-01-30T05:52:31.618Z,83.11
2023-01-30T05:54:58.029Z,99.78
2023-01-30T05:57:24.517Z,100.00
2023-01-30T05:59:50.917Z,100.00
2023-01-30T06:02:17.363Z,93.39
2023-01-30T06:04:43.836Z,82.62
2023-01-30T06:07:10.277Z,77.47
2023-01-30T06:09:36.688Z,69.89
2023-01-30T06:12:03.213Z,67.17
2023-01-30T06:14:29.652Z,69.05
2023-01-30T06:16:56.219Z,70.66
2023-01-30T06:19:23.777Z,73.65
2023-01-30T06:21:50.213Z,75.37
2023-01-30T06:24:16.627Z,77.03
2023-01-30T06:26:43.115Z,78.28
2023-01-30T06:29:09.594Z,79.61
2023-01-30T06:31:36.118Z,79.76
2023-01-30T06:34:02.622Z,80.28
2023-01-30T06:36:29.145Z,81.29
2023-01-30T06:38:55.603Z,81.26
2023-01-30T06:41:22.019Z,82.03
2023-01-30T06:43:48.497Z,82.13
2023-01-30T06:46:14.971Z,82.99
2023-01-30T06:48:41.451Z,84.04
2023-01-30T06:51:07.896Z,84.89
2023-01-30T06:53:34.314Z,85.03
2023-01-30T06:56:01.594Z,84.61
2023-01-30T06:58:28.121Z,85.06
2023-01-30T07:00:54.601Z,85.11
2023-01-30T07:03:21.043Z,85.69
2023-01-30T07:05:48.279Z,85.17
2023-01-30T07:08:16.222Z,85.26
2023-01-30T07:10:43.580Z,84.59
2023-01-30T07:13:10.238Z,85.24
2023-01-30T07:15:37.084Z,85.16
2023-01-30T07:18:03.680Z,85.31
2023-01-30T07:20:31.207Z,85.00
2023-01-30T07:22:58.025Z,85.38
2023-01-30T07:25:26.233Z,86.09
2023-01-30T07:27:58.358Z,86.13
2023-01-30T07:30:26.050Z,86.58
2023-01-30T07:32:54.769Z,86.38
2023-01-30T07:35:23.112Z,86.41
2023-01-30T07:37:50.856Z,86.29
2023-01-30T07:40:18.905Z,86.12
2023-01-30T07:42:56.201Z,86.38
2023-01-30T07:45:22.660Z,86.54
2023-01-30T07:47:49.054Z,85.83
2023-01-30T07:50:16.343Z,86.70
2023-01-30T07:52:42.923Z,86.24
2023-01-30T07:55:09.567Z,87.32
2023-01-30T07:57:36.056Z,87.85
2023-01-30T08:00:04.741Z,86.76
2023-01-30T08:02:35.222Z,86.27
2023-01-30T08:05:02.771Z,86.56
2023-01-30T08:07:30.306Z,86.43
2023-01-30T08:09:56.728Z,86.13
2023-01-30T08:12:23.232Z,86.41
2023-01-30T08:14:49.630Z,87.00
2023-01-30T08:17:16.159Z,86.62
2023-01-30T08:19:42.613Z,86.96
2023-01-30T08:22:09.122Z,86.91
2023-01-30T08:24:35.876Z,87.18
2023-01-30T08:27:03.173Z,86.48
2023-01-30T08:29:29.631Z,86.92
2023-01-30T08:31:59.951Z,86.61
2023-01-30T08:34:26.891Z,86.24
2023-01-30T08:36:53.401Z,86.22
2023-01-30T08:39:19.870Z,86.01
2023-01-30T08:41:46.336Z,86.03
2023-01-30T08:44:12.794Z,85.75
2023-01-30T08:46:39.543Z,85.88
2023-01-30T08:49:06.507Z,85.57
2023-01-30T08:51:33.189Z,85.40
2023-01-30T08:53:59.624Z,85.11
2023-01-30T08:56:26.167Z,85.41
2023-01-30T08:58:52.640Z,84.86
2023-01-30T09:01:19.948Z,85.32
2023-01-30T09:03:46.834Z,85.70
2023-01-30T09:06:13.366Z,85.75
2023-01-30T09:08:39.755Z,86.34
2023-01-30T09:11:06.664Z,86.03
2023-01-30T09:13:34.740Z,85.84
2023-01-30T09:16:01.199Z,85.86
2023-01-30T09:18:27.699Z,85.77
2023-01-30T09:21:03.057Z,85.06
2023-01-30T09:23:29.969Z,84.91
2023-01-30T09:25:56.385Z,85.36
2023-01-30T09:28:22.967Z,84.71
2023-01-30T09:30:49.497Z,85.08
2023-01-30T09:33:20.145Z,84.95
2023-01-30T09:35:49.989Z,84.97
2023-01-30T09:38:17.189Z,84.90
2023-01-30T09:41:06.742Z,84.58
2023-01-30T09:44:02.715Z,83.98
2023-01-30T09:46:48.293Z,84.47
2023-01-30T09:49:39.784Z,84.72
2023-01-30T09:52:33.634Z,84.29
2023-01-30T09:55:18.568Z,84.31
2023-01-30T09:57:50.817Z,84.29
2023-01-30T10:00:35.825Z,84.02
2023-01-30T10:03:10.579Z,83.67
2023-01-30T10:05:56.879Z,84.40
2023-01-30T10:08:56.283Z,84.23
2023-01-30T10:11:29.146Z,84.09
2023-01-30T10:14:13.357Z,84.66
2023-01-30T10:17:04.076Z,84.22
2023-01-30T10:19:49.274Z,84.26
2023-01-30T10:22:22.931Z,84.03
2023-01-30T10:25:03.029Z,83.70
2023-01-30T10:27:32.349Z,83.63
2023-01-30T10:30:03.239Z,84.33
2023-01-30T10:32:44.104Z,83.71
2023-01-30T10:35:18.272Z,84.42
2023-01-30T10:38:00.916Z,84.31
2023-01-30T10:40:42.839Z,84.08
2023-01-30T10:43:30.773Z,84.60
2023-01-30T10:46:04.399Z,84.63
2023-01-30T10:48:53.200Z,84.37
2023-01-30T10:51:19.742Z,84.11
2023-01-30T10:53:53.383Z,84.36
2023-01-30T10:56:40.063Z,84.24
2023-01-30T10:59:20.858Z,84.38
2023-01-30T11:02:02.636Z,83.71
2023-01-30T11:04:59.477Z,84.01
2023-01-30T11:07:30.531Z,84.22
2023-01-30T11:09:58.364Z,83.93
2023-01-30T11:12:24.936Z,83.89
2023-01-30T11:14:58.720Z,84.17
2023-01-30T11:17:32.142Z,83.78
2023-01-30T11:20:04.965Z,83.96
2023-01-30T11:22:34.286Z,84.10
2023-01-30T11:25:03.795Z,84.26
2023-01-30T11:27:35.116Z,84.43
2023-01-30T11:30:16.964Z,84.00
2023-01-30T11:32:45.192Z,84.34
2023-01-30T11:35:14.616Z,84.37
2023-01-30T11:37:43.547Z,84.51
2023-01-30T11:40:23.756Z,84.14
2023-01-30T11:43:12.178Z,84.58
2023-01-30T11:45:43.933Z,84.67
2023-01-30T11:48:33.026Z,84.54
2023-01-30T11:51:04.559Z,84.41
2023-01-30T11:53:56.729Z,84.88
2023-01-30T11:56:44.500Z,84.97
2023-01-30T11:59:32.164Z,84.83
2023-01-30T12:02:24.891Z,84.83
2023-01-30T12:04:54.692Z,84.33
2023-01-30T12:07:25.374Z,85.85
2023-01-30T12:09:54.090Z,85.90
2023-01-30T12:12:29.703Z,85.67
2023-01-30T12:15:21.434Z,85.31
2023-01-30T12:18:15.637Z,85.17
2023-01-30T12:20:52.559Z,85.24
2023-01-30T12:23:31.101Z,85.79
2023-01-30T12:26:15.618Z,85.92
2023-01-30T12:28:52.146Z,86.36
2023-01-30T12:31:24.797Z,86.04
2023-01-30T12:33:54.504Z,86.92
2023-01-30T12:36:50.596Z,86.39
2023-01-30T12:39:44.916Z,86.88
2023-01-30T12:42:47.847Z,86.52
2023-01-30T12:45:24.244Z,86.26
2023-01-30T12:48:44.145Z,86.33
2023-01-30T12:51:32.408Z,86.46
2023-01-30T12:54:34.063Z,86.63
2023-01-30T12:57:05.279Z,86.89
2023-01-30T12:59:31.680Z,86.88
2023-01-30T13:02:17.309Z,86.69
2023-01-30T13:05:23.701Z,86.91
2023-01-30T13:08:04.852Z,86.79
2023-01-30T13:10:43.048Z,86.91
2023-01-30T13:13:18.069Z,87.04
2023-01-30T13:15:59.226Z,87.35
2023-01-30T13:18:44.046Z,87.53
2023-01-30T13:21:18.599Z,88.50
2023-01-30T13:24:22.974Z,88.47
2023-01-30T13:26:50.865Z,89.16
2023-01-30T13:29:37.960Z,89.06
2023-01-30T13:33:00.111Z,89.23
2023-01-30T13:35:34.322Z,88.75
2023-01-30T13:38:04.399Z,88.49
2023-01-30T13:40:38.626Z,88.75
2023-01-30T13:43:29.242Z,88.93
2023-01-30T13:46:01.579Z,88.78
2023-01-30T13:48:57.015Z,88.36
2023-01-30T13:51:43.139Z,87.92
2023-01-30T13:54:31.227Z,87.68
2023-01-30T13:57:28.230Z,87.25
2023-01-30T14:00:15.268Z,87.25
2023-01-30T14:03:03.846Z,86.70
2023-01-30T14:05:52.613Z,86.82
2023-01-30T14:08:22.040Z,86.35
2023-01-30T14:10:49.782Z,86.06
2023-01-30T14:13:19.809Z,86.27
2023-01-30T14:15:58.075Z,86.09
2023-01-30T14:18:31.072Z,85.97
2023-01-30T14:21:14.388Z,85.69
2023-01-30T14:23:53.408Z,85.90
2023-01-30T14:27:00.071Z,85.33
2023-01-30T14:29:38.955Z,85.62
2023-01-30T14:32:14.610Z,85.48
2023-01-30T14:34:44.884Z,86.16
2023-01-30T14:37:39.188Z,85.96
2023-01-30T14:40:20.854Z,85.91
2023-01-30T14:43:12.247Z,85.88
2023-01-30T14:46:00.755Z,86.20
2023-01-30T14:48:33.316Z,86.31
2023-01-30T14:51:21.269Z,86.61
2023-01-30T14:54:10.116Z,86.56
2023-01-30T14:56:51.622Z,86.62
2023-01-30T14:59:20.955Z,86.52
2023-01-30T15:02:03.622Z,86.55
2023-01-30T15:04:33.692Z,86.58
2023-01-30T15:07:05.413Z,86.64
2023-01-30T15:09:32.516Z,86.63
2023-01-30T15:12:24.677Z,86.75
2023-01-30T15:15:16.887Z,86.84
2023-01-30T15:18:28.670Z,86.61
2023-01-30T15:21:04.117Z,86.60
2023-01-30T15:23:36.509Z,86.79
2023-01-30T15:26:09.686Z,86.64
2023-01-30T15:28:53.275Z,86.70
2023-01-30T15:31:22.437Z,86.61
2023-01-30T15:33:51.730Z,86.53
2023-01-30T15:36:31.572Z,86.36
2023-01-30T15:38:59.030Z,86.13
2023-01-30T15:41:26.616Z,86.12
2023-01-30T15:44:29.763Z,86.14
2023-01-30T15:47:24.256Z,85.57
2023-01-30T15:49:54.351Z,85.95
2023-01-30T15:52:22.880Z,85.87
2023-01-30T15:54:54.742Z,85.65
2023-01-30T15:57:31.359Z,85.89
2023-01-30T15:59:58.184Z,85.87
2023-01-30T16:02:33.761Z,85.81
2023-01-30T16:05:25.322Z,86.00
2023-01-30T16:07:54.594Z,86.37
2023-01-30T16:10:23.695Z,86.41
2023-01-30T16:12:54.548Z,86.57
2023-01-30T16:15:34.878Z,86.60
2023-01-30T16:18:09.578Z,86.31
2023-01-30T16:21:00.821Z,86.52
2023-01-30T16:23:29.531Z,86.40
2023-01-30T16:25:57.103Z,86.44
2023-01-30T16:28:26.328Z,86.18
2023-01-30T16:31:07.758Z,85.98
2023-01-30T16:33:36.485Z,86.59
2023-01-30T16:36:21.476Z,86.58
2023-01-30T16:38:49.873Z,87.00
2023-01-30T16:41:31.835Z,87.11
2023-01-30T16:44:21.661Z,87.25
2023-01-30T16:46:52.376Z,87.41
2023-01-30T16:49:37.402Z,87.21
2023-01-30T16:52:36.962Z,87.47
2023-01-30T16:55:07.809Z,87.43
2023-01-30T16:57:40.272Z,87.59
2023-01-30T17:00:13.172Z,87.62
2023-01-30T17:02:50.816Z,87.73
2023-01-30T17:05:19.224Z,87.57
2023-01-30T17:07:46.605Z,87.89
2023-01-30T17:10:28.510Z,87.84
2023-01-30T17:12:55.806Z,87.78
2023-01-30T17:15:22.312Z,87.98
2023-01-30T17:17:49.978Z,87.86
2023-01-30T17:20:16.775Z,88.00
2023-01-30T17:22:46.790Z,87.84
2023-01-30T17:25:35.760Z,87.60
2023-01-30T17:28:02.464Z,88.04
2023-01-30T17:30:28.930Z,87.83
2023-01-30T17:32:55.375Z,87.83
2023-01-30T17:35:22.023Z,87.46
2023-01-30T17:37:59.618Z,87.19
2023-01-30T17:40:36.834Z,87.31
2023-01-30T17:43:03.945Z,87.11
2023-01-30T17:45:30.610Z,87.05
2023-01-30T17:47:57.036Z,87.19
2023-01-30T17:50:23.600Z,87.68
2023-01-30T17:52:50.038Z,87.46
2023-01-30T17:55:16.585Z,87.17
2023-01-30T17:57:46.333Z,87.20
2023-01-30T18:00:19.089Z,87.63
2023-01-30T18:02:46.327Z,87.09
2023-01-30T18:05:13.075Z,87.68
2023-01-30T18:07:40.253Z,87.66
2023-01-30T18:10:07.645Z,87.99
2023-01-30T18:12:34.068Z,88.35
2023-01-30T18:15:00.543Z,88.44
2023-01-30T18:17:30.240Z,88.51
2023-01-30T18:19:56.663Z,89.31
2023-01-30T18:22:23.177Z,88.85
2023-01-30T18:24:49.605Z,89.06
2023-01-30T18:27:16.020Z,89.29
2023-01-30T18:29:42.487Z,89.56
2023-01-30T18:32:08.962Z,89.60
2023-01-30T18:34:35.944Z,89.84
2023-01-30T18:37:02.482Z,90.01
2023-01-30T18:39:29.243Z,89.55
2023-01-30T18:41:55.672Z,89.85
2023-01-30T18:44:22.103Z,89.63
2023-01-30T18:46:50.240Z,89.86
2023-01-30T18:49:16.661Z,90.57
2023-01-30T18:51:43.062Z,89.86
2023-01-30T18:54:09.517Z,90.30
2023-01-30T18:56:36.514Z,89.89
2023-01-30T18:59:05.125Z,89.80
2023-01-30T19:01:35.461Z,90.34
2023-01-30T19:04:02.975Z,90.54
2023-01-30T19:06:30.172Z,90.07
2023-01-30T19:08:57.557Z,90.06
2023-01-30T19:11:43.055Z,90.43
2023-01-30T19:14:10.513Z,90.34
2023-01-30T19:16:38.762Z,90.12
2023-01-30T19:19:05.528Z,89.99
2023-01-30T19:21:32.292Z,89.83
2023-01-30T19:24:01.710Z,90.10
2023-01-30T19:26:28.793Z,90.06
2023-01-30T19:28:55.281Z,89.75
2023-01-30T19:31:22.486Z,89.53
2023-01-30T19:33:55.834Z,89.58
2023-01-30T19:36:24.273Z,89.58
2023-01-30T19:38:51.249Z,89.25
2023-01-30T19:41:27.021Z,89.34
2023-01-30T19:43:54.909Z,88.93
2023-01-30T19:46:21.525Z,89.03
2023-01-30T19:48:48.967Z,89.02
2023-01-30T19:51:27.050Z,88.84
2023-01-30T19:53:59.197Z,88.61
2023-01-30T19:56:27.137Z,88.73
2023-01-30T19:58:55.098Z,88.26
2023-01-30T20:01:23.695Z,88.22
2023-01-30T20:03:50.494Z,88.31
2023-01-30T20:06:19.608Z,88.15
2023-01-30T20:08:49.474Z,88.25
2023-01-30T20:11:18.794Z,88.20
2023-01-30T20:13:46.826Z,88.24
2023-01-30T20:16:18.456Z,88.01
2023-01-30T20:18:47.109Z,88.09
2023-01-30T20:21:19.704Z,88.18
2023-01-30T20:23:47.123Z,87.83
2023-01-30T20:26:16.361Z,87.83
2023-01-30T20:28:43.025Z,87.61
2023-01-30T20:31:12.739Z,87.48
2023-01-30T20:33:39.939Z,87.18
2023-01-30T20:36:08.943Z,87.34
2023-01-30T20:38:37.441Z,87.22
2023-01-30T20:41:17.671Z,87.20
2023-01-30T20:43:46.608Z,87.10
2023-01-30T20:46:19.131Z,86.68
2023-01-30T20:48:46.857Z,86.88
2023-01-30T20:51:18.297Z,86.40
2023-01-30T20:53:53.507Z,86.74
2023-01-30T20:56:21.386Z,86.25
2023-01-30T20:58:48.251Z,86.04
2023-01-30T21:01:18.443Z,86.16
2023-01-30T21:03:48.749Z,86.34
2023-01-30T21:06:37.304Z,85.83
2023-01-30T21:09:03.176Z,86.17
2023-01-30T21:11:29.728Z,85.74
2023-01-30T21:13:56.468Z,85.86
2023-01-30T21:16:25.580Z,85.90
2023-01-30T21:18:55.042Z,86.33
2023-01-30T21:21:39.461Z,86.17
2023-01-30T21:24:13.940Z,86.26
2023-01-30T21:26:45.812Z,86.50
2023-01-30T21:29:14.360Z,86.43
2023-01-30T21:31:41.484Z,86.63
2023-01-30T21:34:09.745Z,86.70
2023-01-30T21:36:36.799Z,87.16
2023-01-30T21:39:21.829Z,87.01
2023-01-30T21:42:07.108Z,87.02
2023-01-30T21:44:39.258Z,86.88
2023-01-30T21:47:07.059Z,86.52
2023-01-30T21:49:34.365Z,86.64
2023-01-30T21:52:00.891Z,86.98
2023-01-30T21:54:27.755Z,86.40
2023-01-30T21:56:54.259Z,86.50
2023-01-30T21:59:20.782Z,86.74
2023-01-30T22:01:47.278Z,86.67
2023-01-30T22:04:14.929Z,86.53
2023-01-30T22:06:42.526Z,86.20
2023-01-30T22:09:11.538Z,86.89
2023-01-30T22:11:38.691Z,87.77
2023-01-30T22:14:05.496Z,87.21
2023-01-30T22:16:33.541Z,87.54
2023-01-30T22:19:03.489Z,87.18
2023-01-30T22:21:33.501Z,87.00
2023-01-30T22:24:02.262Z,86.90
2023-01-30T22:26:29.349Z,87.10
2023-01-30T22:28:57.392Z,87.19
2023-01-30T22:31:25.190Z,86.72
2023-01-30T22:33:54.992Z,86.58
2023-01-30T22:36:29.262Z,87.03
2023-01-30T22:38:56.067Z,87.01
2023-01-30T22:41:24.787Z,86.80
2023-01-30T22:43:56.164Z,86.86
2023-01-30T22:46:25.105Z,86.95
2023-01-30T22:48:51.758Z,87.25
2023-01-30T22:51:20.912Z,86.87
2023-01-30T22:53:50.556Z,86.90
2023-01-30T22:56:23.009Z,86.76
2023-01-30T22:58:50.041Z,87.01
2023-01-30T23:01:19.653Z,86.77
2023-01-30T23:03:47.656Z,86.80
2023-01-30T23:06:16.648Z,86.43
2023-01-30T23:08:45.686Z,86.31
2023-01-30T23:11:18.316Z,86.10
2023-01-30T23:13:47.583Z,86.26
2023-01-30T23:16:15.861Z,85.57
2023-01-30T23:19:00.665Z,85.47
2023-01-30T23:21:37.841Z,84.92
2023-01-30T23:24:16.676Z,84.74
2023-01-30T23:26:45.967Z,85.03
2023-01-30T23:29:15.135Z,85.15
2023-01-30T23:31:43.386Z,85.28
2023-01-30T23:34:15.526Z,84.81
2023-01-30T23:36:42.293Z,85.30
2023-01-30T23:39:08.943Z,85.34
2023-01-30T23:41:36.605Z,85.37
2023-01-30T23:44:04.115Z,85.13
2023-01-30T23:46:36.669Z,85.16
2023-01-30T23:49:10.443Z,85.34
2023-01-30T23:51:39.908Z,85.10
2023-01-30T23:54:07.122Z,85.30
2023-01-30T23:56:37.566Z,85.16
2023-01-30T23:59:05.013Z,85.48
